Flight Track Log - Related Links

Times and Time Zones

All times are in EDT time to prevent confusion due to time zone crossing. See the FLG3862 flight status page for this flight to view local times or setup timezone preferences in your user account.

Time Position Orientation Groundspeed Altitude Reporting Facility
EDT Latitude Longitude Course Direction KTS MPH feet Rate Location/Type
Sun 10:36:17 AM 42.2069 -83.3519 198° South 170 196 1,100  Level FAA TRACON SMA TRACON (SMA)
Sun 10:36:37 AM 42.1911 -83.3589 198° South 174 200 2,100 2,550 Climbing FAA TRACON SMA TRACON (SMA)
Sun 10:36:57 AM 42.1761 -83.3567 174° South 193 222 2,800 2,550 Climbing FAA TRACON SMA TRACON (SMA)
Sun 10:37:17 AM 42.1558 -83.3536 174° South 203 234 3,800 2,550 Climbing FAA TRACON SMA TRACON (SMA)
Sun 10:37:37 AM 42.1372 -83.3506 173° South 225 259 4,500 1,500 Climbing FAA TRACON SMA TRACON (SMA)
Sun 10:37:57 AM 42.1208 -83.3475 172° South 249 287 4,800 2,250 Climbing FAA TRACON SMA TRACON (SMA)
Sun 10:38:17 AM 42.0919 -83.3297 155° Southeast 268 308 6,000 2,432 Climbing FAA TRACON SMA TRACON (SMA)
Sun 10:38:34 AM 42.0819 -83.3083 122° Southeast 300 345 6,300 2,154 Climbing Cleveland Center
Sun 10:39:35 AM 42.0783 -83.1933 92° East 328 377 8,800 2,132 Climbing Cleveland Center
Sun 10:40:35 AM 42.1181 -83.0969 61° Northeast 335 386 10,600 1,650 Climbing Cleveland Center
Sun 10:41:35 AM 42.1642 -82.9783 62° Northeast 351 404 12,100 1,600 Climbing Cleveland Center
Sun 10:42:35 AM 42.2147 -82.8511 62° Northeast 361 415 13,800 1,450 Climbing Cleveland Center
Sun 10:43:35 AM 42.2653 -82.7211 62° Northeast 373 429 15,000 1,200 Climbing Cleveland Center
Sun 10:44:35 AM 42.3156 -82.5881 63° Northeast 383 441 16,200 1,350 Climbing Cleveland Center
Sun 10:45:35 AM 42.3639 -82.4464 65° Northeast 394 453 17,700 1,500 Climbing Cleveland Center
Sun 10:46:35 AM 42.3622 -82.2833 91° East 406 467 19,200 1,400 Climbing Cleveland Center
Sun 10:47:35 AM 42.3561 -82.1144 93° East 424 488 20,500 1,150 Climbing Cleveland Center
Sun 10:48:35 AM 42.3481 -81.9431 94° East 447 514 21,500 1,050 Climbing Cleveland Center
Sun 10:49:35 AM 42.3394 -81.7658 94° East 463 533 22,600 1,050 Climbing Cleveland Center
Sun 10:50:35 AM 42.3308 -81.5886 94° East 468 539 23,600 1,000 Climbing Cleveland Center
Sun 10:51:35 AM 42.3239 -81.4117 93° East 468 539 24,600 1,000 Climbing Cleveland Center
Sun 10:52:35 AM 42.3144 -81.2289 94° East 478 550 25,600 1,000 Climbing Cleveland Center
Sun 10:53:35 AM 42.3031 -81.0322 94° East 488 562 26,600 1,050 Climbing Cleveland Center
Sun 10:54:35 AM 42.3264 -80.8642 79° East 461 531 27,700 1,050 Climbing Cleveland Center
Sun 10:55:35 AM 42.3808 -80.7042 65° Northeast 461 531 28,700 650 Climbing Cleveland Center
Sun 10:56:35 AM 42.4311 -80.5411 67° East 456 525 29,000 150 Climbing Cleveland Center
Sun 10:57:35 AM 42.4850 -80.3747 66° East 467 537 29,000  Level Cleveland Center
Sun 10:58:35 AM 42.5389 -80.2028 67° East 487 560 29,000  Level Cleveland Center
Sun 10:59:35 AM 42.5944 -80.0306 66° East 494 568 29,000  Level Cleveland Center
Sun 11:00:35 AM 42.6539 -79.8519 66° East 502 578 29,000  Level Cleveland Center
Sun 11:01:35 AM 42.7067 -79.6733 68° East 502 578 29,000  Level Cleveland Center
Sun 11:02:35 AM 42.7636 -79.5000 66° East 502 578 29,000  Level Cleveland Center
Sun 11:03:35 AM 42.8139 -79.3267 68° East 497 572 29,000  Level Cleveland Center
Sun 11:04:35 AM 42.8681 -79.1500 67° East 497 572 29,000  Level Cleveland Center
Sun 11:05:35 AM 42.9200 -78.9758 68° East 497 572 29,000  Level Cleveland Center
Sun 11:06:35 AM 42.9736 -78.7983 68° East 497 572 29,000  Level Cleveland Center
Sun 11:07:35 AM 43.0250 -78.6236 68° East 497 572 29,000  Level Cleveland Center
Sun 11:08:35 AM 43.0761 -78.4458 68° East 497 572 29,000  Level Cleveland Center
Sun 11:09:35 AM 43.1269 -78.2706 68° East 497 572 29,000  Level Cleveland Center
Sun 11:10:35 AM 43.1775 -78.0922 69° East 497 572 29,000  Level Cleveland Center
Sun 11:11:35 AM 43.2300 -77.9192 67° East 497 572 29,000  Level Cleveland Center
Sun 11:12:35 AM 43.2800 -77.7431 69° East 497 572 29,000  Level Cleveland Center
Sun 11:13:35 AM 43.3275 -77.5667 70° East 497 572 29,000  Level Cleveland Center
Sun 11:15:13 AM 43.4086 -77.2853 68° East 504 580 29,000  Level Boston Center
Sun 11:16:13 AM 43.4578 -77.1061 69° East 499 574 29,000  Level Boston Center
Sun 11:17:14 AM 43.5061 -76.9353 69° East 494 568 29,000  Level Boston Center
Sun 11:18:14 AM 43.5547 -76.7581 69° East 494 568 29,000  Level Boston Center
Sun 11:19:15 AM 43.6006 -76.5922 69° East 502 578 29,000  Level Boston Center
Sun 11:20:13 AM 43.6503 -76.4206 68° East 497 572 29,000  Level Boston Center
Sun 11:21:14 AM 43.6983 -76.2397 70° East 497 572 29,000  Level Boston Center
Sun 11:22:25 AM 43.7458 -76.0617 70° East 497 572 29,000  Level Boston Center
Sun 11:23:25 AM 43.7950 -75.8806 69° East 497 572 29,000  Level Boston Center
Sun 11:24:26 AM 43.8514 -75.6647 70° East 497 572 29,000 -446 Level Boston Center
Sun 11:25:26 AM 43.9003 -75.4800 70° East 497 572 28,100 -1,388 Descending Boston Center
Sun 11:26:27 AM 43.9444 -75.2947 72° East 497 572 26,200 -1,934 Descending Boston Center
Sun 11:27:27 AM 43.9928 -75.1094 70° East 503 579 24,200 -1,950 Descending Boston Center
Sun 11:28:27 AM 44.0386 -74.9297 70° East 496 571 22,300 -1,815 Descending Boston Center
Sun 11:29:26 AM 44.0861 -74.7436 70° East 477 549 20,600 -1,714 Descending Boston Center
Sun 11:30:26 AM 44.1269 -74.5775 71° East 464 534 18,900 -1,289 Descending Boston Center
Sun 11:31:27 AM 44.1672 -74.4197 70° East 450 518 18,000 -1,059 Descending Boston Center
Sun 11:32:25 AM 44.2053 -74.2647 71° East 430 495 16,800 -1,119 Descending Boston Center
Sun 11:33:25 AM 44.2408 -74.1208 71° East 414 476 15,800 -1,388 Descending Boston Center
Sun 11:34:26 AM 44.2739 -73.9797 72° East 389 448 14,000 -1,835 Descending Boston Center
Sun 11:35:26 AM 44.3172 -73.8619 63° Northeast 376 433 12,100 -1,835 Descending Boston Center
Sun 11:36:27 AM 44.3581 -73.7525 62° Northeast 348 400 10,300 -1,736 Descending Boston Center
Sun 11:37:27 AM 44.3989 -73.6431 62° Northeast 290 334 8,600 -1,373 Descending Boston Center
Sun 11:38:25 AM 44.4311 -73.5478 65° Northeast 275 316 7,600 -966 Descending Boston Center
Sun 11:39:25 AM 44.4653 -73.4581 62° Northeast 261 300 6,700 -1,083 Descending Boston Center
Sun 11:40:38 AM 44.4950 -73.3772 63° Northeast 249 287 5,200 -1,701 Descending Boston Center
Sun 11:41:39 AM 44.5311 -73.2758 63° Northeast 238 274 2,900 -1,866 Descending Boston Center
Sun 11:42:37 AM 44.5047 -73.2056 118° Southeast 201 231 1,500 -1,261 Descending Boston Center
Sun 11:43:38 AM 44.4778 -73.1617 131° Southeast 172 198 400 -550 Descending Boston Center
Sun 11:44:37 AM 44.4717 -73.1500 126° Southeast 97 112 400  Level Boston Center

Login

Don't have an account? Register now (free) for customized features, flight alerts, and more!